sensor_id;sensor_type;location;lat;lon;timestamp;P1;durP1;ratioP1;P2;durP2;ratioP2
31754;SDS011;18325;52.018;4.726;2022-07-25T00:00:07;6.15;;;4.28;;
31754;SDS011;18325;52.018;4.726;2022-07-25T00:02:35;5.03;;;3.92;;
31754;SDS011;18325;52.018;4.726;2022-07-25T00:05:02;7.45;;;4.45;;
31754;SDS011;18325;52.018;4.726;2022-07-25T00:07:29;6.03;;;3.78;;
31754;SDS011;18325;52.018;4.726;2022-07-25T00:10:02;4.32;;;3.92;;
31754;SDS011;18325;52.018;4.726;2022-07-25T00:12:29;6.78;;;3.70;;
31754;SDS011;18325;52.018;4.726;2022-07-25T00:14:57;4.97;;;3.97;;
31754;SDS011;18325;52.018;4.726;2022-07-25T00:17:24;9.43;;;4.63;;
31754;SDS011;18325;52.018;4.726;2022-07-25T00:19:50;4.68;;;3.85;;
31754;SDS011;18325;52.018;4.726;2022-07-25T00:22:17;5.88;;;4.65;;
31754;SDS011;18325;52.018;4.726;2022-07-25T00:24:44;5.22;;;4.05;;
31754;SDS011;18325;52.018;4.726;2022-07-25T00:27:10;4.40;;;4.00;;
31754;SDS011;18325;52.018;4.726;2022-07-25T00:29:37;5.05;;;4.10;;
31754;SDS011;18325;52.018;4.726;2022-07-25T00:32:06;5.30;;;4.43;;
31754;SDS011;18325;52.018;4.726;2022-07-25T00:34:32;5.63;;;4.35;;
31754;SDS011;18325;52.018;4.726;2022-07-25T00:37:02;7.50;;;4.70;;
31754;SDS011;18325;52.018;4.726;2022-07-25T00:39:29;5.18;;;4.15;;
31754;SDS011;18325;52.018;4.726;2022-07-25T00:41:55;5.93;;;4.82;;
31754;SDS011;18325;52.018;4.726;2022-07-25T00:44:22;6.72;;;4.40;;
31754;SDS011;18325;52.018;4.726;2022-07-25T00:46:49;6.13;;;3.92;;
31754;SDS011;18325;52.018;4.726;2022-07-25T00:49:17;5.28;;;4.05;;
31754;SDS011;18325;52.018;4.726;2022-07-25T00:51:44;6.88;;;4.43;;
31754;SDS011;18325;52.018;4.726;2022-07-25T00:54:11;6.25;;;3.83;;
31754;SDS011;18325;52.018;4.726;2022-07-25T00:56:37;4.32;;;3.90;;
31754;SDS011;18325;52.018;4.726;2022-07-25T00:59:04;7.70;;;4.05;;
31754;SDS011;18325;52.018;4.726;2022-07-25T01:01:31;5.13;;;4.32;;
31754;SDS011;18325;52.018;4.726;2022-07-25T01:04:15;5.07;;;3.88;;
31754;SDS011;18325;52.018;4.726;2022-07-25T01:06:43;5.72;;;3.95;;
31754;SDS011;18325;52.018;4.726;2022-07-25T01:09:10;5.05;;;3.92;;
31754;SDS011;18325;52.018;4.726;2022-07-25T01:11:37;6.07;;;4.03;;
31754;SDS011;18325;52.018;4.726;2022-07-25T01:14:03;8.50;;;4.25;;
31754;SDS011;18325;52.018;4.726;2022-07-25T01:16:30;6.20;;;4.00;;
31754;SDS011;18325;52.018;4.726;2022-07-25T01:18:56;6.00;;;3.75;;
31754;SDS011;18325;52.018;4.726;2022-07-25T01:21:25;7.38;;;4.10;;
31754;SDS011;18325;52.018;4.726;2022-07-25T01:23:52;6.40;;;4.43;;
31754;SDS011;18325;52.018;4.726;2022-07-25T01:26:18;4.85;;;4.35;;
31754;SDS011;18325;52.018;4.726;2022-07-25T01:28:45;4.97;;;4.50;;
31754;SDS011;18325;52.018;4.726;2022-07-25T01:31:12;6.13;;;4.25;;
31754;SDS011;18325;52.018;4.726;2022-07-25T01:33:38;6.22;;;4.18;;
31754;SDS011;18325;52.018;4.726;2022-07-25T01:36:05;7.03;;;4.53;;
31754;SDS011;18325;52.018;4.726;2022-07-25T01:38:33;5.25;;;4.20;;
31754;SDS011;18325;52.018;4.726;2022-07-25T01:41:00;4.90;;;4.00;;
31754;SDS011;18325;52.018;4.726;2022-07-25T01:43:27;6.03;;;4.05;;
31754;SDS011;18325;52.018;4.726;2022-07-25T01:45:53;5.25;;;4.10;;
31754;SDS011;18325;52.018;4.726;2022-07-25T01:48:20;8.13;;;5.25;;
31754;SDS011;18325;52.018;4.726;2022-07-25T01:50:46;5.72;;;4.47;;
31754;SDS011;18325;52.018;4.726;2022-07-25T01:53:20;4.95;;;4.03;;
31754;SDS011;18325;52.018;4.726;2022-07-25T01:55:48;5.38;;;4.30;;
31754;SDS011;18325;52.018;4.726;2022-07-25T01:58:15;4.78;;;4.00;;
31754;SDS011;18325;52.018;4.726;2022-07-25T02:00:52;7.35;;;4.03;;
31754;SDS011;18325;52.018;4.726;2022-07-25T02:03:18;6.82;;;4.47;;
31754;SDS011;18325;52.018;4.726;2022-07-25T02:05:57;5.60;;;4.53;;
31754;SDS011;18325;52.018;4.726;2022-07-25T02:08:25;5.72;;;4.40;;
31754;SDS011;18325;52.018;4.726;2022-07-25T02:10:53;6.20;;;3.95;;
31754;SDS011;18325;52.018;4.726;2022-07-25T02:13:20;6.70;;;4.38;;
31754;SDS011;18325;52.018;4.726;2022-07-25T02:15:47;5.43;;;3.90;;
31754;SDS011;18325;52.018;4.726;2022-07-25T02:18:13;5.75;;;4.03;;
31754;SDS011;18325;52.018;4.726;2022-07-25T02:20:40;5.78;;;4.20;;
31754;SDS011;18325;52.018;4.726;2022-07-25T02:23:07;6.00;;;5.05;;
31754;SDS011;18325;52.018;4.726;2022-07-25T02:25:33;6.30;;;4.78;;
31754;SDS011;18325;52.018;4.726;2022-07-25T02:28:01;6.47;;;4.72;;
31754;SDS011;18325;52.018;4.726;2022-07-25T02:30:28;7.07;;;5.15;;
31754;SDS011;18325;52.018;4.726;2022-07-25T02:32:55;9.65;;;5.03;;
31754;SDS011;18325;52.018;4.726;2022-07-25T02:35:21;7.63;;;5.25;;
31754;SDS011;18325;52.018;4.726;2022-07-25T02:37:48;6.68;;;4.53;;
31754;SDS011;18325;52.018;4.726;2022-07-25T02:40:14;7.78;;;5.22;;
31754;SDS011;18325;52.018;4.726;2022-07-25T02:42:41;5.93;;;4.97;;
31754;SDS011;18325;52.018;4.726;2022-07-25T02:45:09;9.40;;;5.28;;
31754;SDS011;18325;52.018;4.726;2022-07-25T02:47:36;7.47;;;5.07;;
31754;SDS011;18325;52.018;4.726;2022-07-25T02:50:03;9.05;;;5.35;;
31754;SDS011;18325;52.018;4.726;2022-07-25T02:52:30;9.05;;;5.63;;
31754;SDS011;18325;52.018;4.726;2022-07-25T02:54:57;8.68;;;5.97;;
31754;SDS011;18325;52.018;4.726;2022-07-25T02:57:23;8.38;;;5.43;;
31754;SDS011;18325;52.018;4.726;2022-07-25T02:59:50;8.02;;;6.07;;
31754;SDS011;18325;52.018;4.726;2022-07-25T03:02:18;8.52;;;5.88;;
31754;SDS011;18325;52.018;4.726;2022-07-25T03:04:44;9.02;;;6.35;;
31754;SDS011;18325;52.018;4.726;2022-07-25T03:07:11;8.98;;;6.32;;
31754;SDS011;18325;52.018;4.726;2022-07-25T03:09:37;10.52;;;7.18;;
31754;SDS011;18325;52.018;4.726;2022-07-25T03:12:04;9.38;;;6.65;;
31754;SDS011;18325;52.018;4.726;2022-07-25T03:14:31;7.20;;;6.07;;
31754;SDS011;18325;52.018;4.726;2022-07-25T03:16:57;10.25;;;7.07;;
31754;SDS011;18325;52.018;4.726;2022-07-25T03:19:25;10.18;;;6.60;;
31754;SDS011;18325;52.018;4.726;2022-07-25T03:21:52;10.13;;;7.10;;
31754;SDS011;18325;52.018;4.726;2022-07-25T03:24:18;10.45;;;7.57;;
31754;SDS011;18325;52.018;4.726;2022-07-25T03:26:45;12.82;;;7.55;;
31754;SDS011;18325;52.018;4.726;2022-07-25T03:29:11;12.02;;;8.02;;
31754;SDS011;18325;52.018;4.726;2022-07-25T03:31:38;11.25;;;7.95;;
31754;SDS011;18325;52.018;4.726;2022-07-25T03:34:04;12.45;;;8.93;;
31754;SDS011;18325;52.018;4.726;2022-07-25T03:36:32;13.65;;;7.72;;
31754;SDS011;18325;52.018;4.726;2022-07-25T03:38:59;13.73;;;8.68;;
31754;SDS011;18325;52.018;4.726;2022-07-25T03:41:25;12.52;;;8.48;;
31754;SDS011;18325;52.018;4.726;2022-07-25T03:43:52;11.60;;;8.52;;
31754;SDS011;18325;52.018;4.726;2022-07-25T03:46:19;13.80;;;8.85;;
31754;SDS011;18325;52.018;4.726;2022-07-25T03:48:45;11.68;;;8.80;;
31754;SDS011;18325;52.018;4.726;2022-07-25T03:51:12;12.60;;;8.23;;
31754;SDS011;18325;52.018;4.726;2022-07-25T03:53:40;12.20;;;8.48;;
31754;SDS011;18325;52.018;4.726;2022-07-25T03:56:24;11.93;;;7.88;;
31754;SDS011;18325;52.018;4.726;2022-07-25T03:58:51;12.57;;;8.10;;
31754;SDS011;18325;52.018;4.726;2022-07-25T04:01:17;10.80;;;7.57;;
31754;SDS011;18325;52.018;4.726;2022-07-25T04:03:44;9.80;;;7.18;;
31754;SDS011;18325;52.018;4.726;2022-07-25T04:06:11;11.90;;;6.95;;
31754;SDS011;18325;52.018;4.726;2022-07-25T04:08:37;10.75;;;6.95;;
31754;SDS011;18325;52.018;4.726;2022-07-25T04:11:05;8.52;;;6.45;;
31754;SDS011;18325;52.018;4.726;2022-07-25T04:13:32;11.15;;;6.80;;
31754;SDS011;18325;52.018;4.726;2022-07-25T04:15:59;8.55;;;6.50;;
31754;SDS011;18325;52.018;4.726;2022-07-25T04:18:25;9.40;;;5.93;;
31754;SDS011;18325;52.018;4.726;2022-07-25T04:20:52;9.50;;;6.03;;
31754;SDS011;18325;52.018;4.726;2022-07-25T04:23:18;6.88;;;5.22;;
31754;SDS011;18325;52.018;4.726;2022-07-25T04:25:56;6.68;;;5.40;;
31754;SDS011;18325;52.018;4.726;2022-07-25T04:28:24;7.97;;;5.10;;
31754;SDS011;18325;52.018;4.726;2022-07-25T04:30:51;5.80;;;4.75;;
31754;SDS011;18325;52.018;4.726;2022-07-25T04:33:18;5.32;;;3.92;;
31754;SDS011;18325;52.018;4.726;2022-07-25T04:35:45;10.15;;;3.97;;
31754;SDS011;18325;52.018;4.726;2022-07-25T04:38:12;6.43;;;3.70;;
31754;SDS011;18325;52.018;4.726;2022-07-25T04:40:39;5.53;;;3.22;;
31754;SDS011;18325;52.018;4.726;2022-07-25T04:43:05;5.05;;;3.53;;
31754;SDS011;18325;52.018;4.726;2022-07-25T04:45:33;4.40;;;3.20;;
31754;SDS011;18325;52.018;4.726;2022-07-25T04:48:00;4.78;;;3.50;;
31754;SDS011;18325;52.018;4.726;2022-07-25T04:50:27;5.47;;;3.22;;
31754;SDS011;18325;52.018;4.726;2022-07-25T04:52:54;5.82;;;3.75;;
31754;SDS011;18325;52.018;4.726;2022-07-25T04:55:21;4.38;;;3.00;;
31754;SDS011;18325;52.018;4.726;2022-07-25T04:57:48;4.50;;;3.25;;
31754;SDS011;18325;52.018;4.726;2022-07-25T05:00:15;3.42;;;2.92;;
31754;SDS011;18325;52.018;4.726;2022-07-25T05:02:43;9.60;;;3.40;;
31754;SDS011;18325;52.018;4.726;2022-07-25T05:05:10;5.53;;;3.00;;
31754;SDS011;18325;52.018;4.726;2022-07-25T05:07:36;5.57;;;2.83;;
31754;SDS011;18325;52.018;4.726;2022-07-25T05:10:03;4.10;;;2.80;;
31754;SDS011;18325;52.018;4.726;2022-07-25T05:12:30;4.63;;;3.17;;
31754;SDS011;18325;52.018;4.726;2022-07-25T05:14:57;6.43;;;2.70;;
31754;SDS011;18325;52.018;4.726;2022-07-25T05:17:23;2.72;;;2.20;;
31754;SDS011;18325;52.018;4.726;2022-07-25T05:19:51;4.63;;;2.47;;
31754;SDS011;18325;52.018;4.726;2022-07-25T05:22:18;3.22;;;2.22;;
31754;SDS011;18325;52.018;4.726;2022-07-25T05:24:44;2.97;;;2.20;;
31754;SDS011;18325;52.018;4.726;2022-07-25T05:27:11;3.72;;;2.25;;
31754;SDS011;18325;52.018;4.726;2022-07-25T05:29:38;1.92;;;1.73;;
31754;SDS011;18325;52.018;4.726;2022-07-25T05:32:04;4.22;;;2.00;;
31754;SDS011;18325;52.018;4.726;2022-07-25T05:34:31;3.78;;;1.80;;
31754;SDS011;18325;52.018;4.726;2022-07-25T05:36:59;2.95;;;2.40;;
31754;SDS011;18325;52.018;4.726;2022-07-25T05:39:25;2.83;;;1.80;;
31754;SDS011;18325;52.018;4.726;2022-07-25T05:41:53;3.08;;;1.70;;
31754;SDS011;18325;52.018;4.726;2022-07-25T05:44:19;2.53;;;1.90;;
31754;SDS011;18325;52.018;4.726;2022-07-25T05:46:46;2.80;;;1.70;;
31754;SDS011;18325;52.018;4.726;2022-07-25T05:49:12;3.25;;;2.05;;
31754;SDS011;18325;52.018;4.726;2022-07-25T05:51:39;2.60;;;1.67;;
31754;SDS011;18325;52.018;4.726;2022-07-25T05:54:08;1.70;;;1.58;;
31754;SDS011;18325;52.018;4.726;2022-07-25T05:56:34;2.00;;;1.60;;
31754;SDS011;18325;52.018;4.726;2022-07-25T05:59:01;2.33;;;1.50;;
31754;SDS011;18325;52.018;4.726;2022-07-25T06:01:27;4.57;;;1.88;;
31754;SDS011;18325;52.018;4.726;2022-07-25T06:03:54;1.80;;;1.38;;
31754;SDS011;18325;52.018;4.726;2022-07-25T06:06:20;1.67;;;1.10;;
31754;SDS011;18325;52.018;4.726;2022-07-25T06:08:47;1.92;;;1.45;;
31754;SDS011;18325;52.018;4.726;2022-07-25T06:11:15;2.58;;;1.27;;
31754;SDS011;18325;52.018;4.726;2022-07-25T06:13:42;3.00;;;1.20;;
31754;SDS011;18325;52.018;4.726;2022-07-25T06:16:08;3.55;;;1.40;;
31754;SDS011;18325;52.018;4.726;2022-07-25T06:18:35;1.33;;;1.10;;
31754;SDS011;18325;52.018;4.726;2022-07-25T06:21:01;7.22;;;1.58;;
31754;SDS011;18325;52.018;4.726;2022-07-25T06:23:29;3.38;;;1.60;;
31754;SDS011;18325;52.018;4.726;2022-07-25T06:25:56;4.10;;;1.77;;
31754;SDS011;18325;52.018;4.726;2022-07-25T06:28:24;2.33;;;1.30;;
31754;SDS011;18325;52.018;4.726;2022-07-25T06:30:51;5.05;;;1.40;;
31754;SDS011;18325;52.018;4.726;2022-07-25T06:33:17;3.55;;;1.00;;
31754;SDS011;18325;52.018;4.726;2022-07-25T06:35:44;2.65;;;1.25;;
31754;SDS011;18325;52.018;4.726;2022-07-25T06:38:11;4.93;;;1.40;;
31754;SDS011;18325;52.018;4.726;2022-07-25T06:40:37;2.10;;;1.42;;
31754;SDS011;18325;52.018;4.726;2022-07-25T06:43:03;4.40;;;1.52;;
31754;SDS011;18325;52.018;4.726;2022-07-25T06:45:31;2.10;;;1.23;;
31754;SDS011;18325;52.018;4.726;2022-07-25T06:47:58;4.82;;;1.38;;
31754;SDS011;18325;52.018;4.726;2022-07-25T06:50:25;4.25;;;1.50;;
31754;SDS011;18325;52.018;4.726;2022-07-25T06:52:51;5.90;;;1.30;;
31754;SDS011;18325;52.018;4.726;2022-07-25T06:55:18;4.65;;;1.55;;
31754;SDS011;18325;52.018;4.726;2022-07-25T06:57:45;2.42;;;1.10;;
31754;SDS011;18325;52.018;4.726;2022-07-25T07:00:12;3.03;;;1.48;;
31754;SDS011;18325;52.018;4.726;2022-07-25T07:02:50;5.13;;;1.60;;
31754;SDS011;18325;52.018;4.726;2022-07-25T07:05:20;5.03;;;1.42;;
31754;SDS011;18325;52.018;4.726;2022-07-25T07:07:47;6.88;;;1.55;;
31754;SDS011;18325;52.018;4.726;2022-07-25T07:10:13;2.47;;;1.27;;
31754;SDS011;18325;52.018;4.726;2022-07-25T07:12:40;1.73;;;1.25;;
31754;SDS011;18325;52.018;4.726;2022-07-25T07:15:07;4.18;;;1.30;;
31754;SDS011;18325;52.018;4.726;2022-07-25T07:17:34;5.15;;;1.30;;
31754;SDS011;18325;52.018;4.726;2022-07-25T07:20:03;5.25;;;1.02;;
31754;SDS011;18325;52.018;4.726;2022-07-25T07:22:30;4.07;;;1.13;;
31754;SDS011;18325;52.018;4.726;2022-07-25T07:24:56;2.65;;;1.60;;
31754;SDS011;18325;52.018;4.726;2022-07-25T07:27:23;4.22;;;1.35;;
31754;SDS011;18325;52.018;4.726;2022-07-25T07:29:50;2.88;;;0.90;;
31754;SDS011;18325;52.018;4.726;2022-07-25T07:32:16;5.82;;;1.45;;
31754;SDS011;18325;52.018;4.726;2022-07-25T07:34:43;5.20;;;1.25;;
31754;SDS011;18325;52.018;4.726;2022-07-25T07:37:11;5.63;;;1.63;;
31754;SDS011;18325;52.018;4.726;2022-07-25T07:39:38;4.45;;;1.17;;
31754;SDS011;18325;52.018;4.726;2022-07-25T07:42:04;3.30;;;0.90;;
31754;SDS011;18325;52.018;4.726;2022-07-25T07:44:31;3.60;;;1.25;;
31754;SDS011;18325;52.018;4.726;2022-07-25T07:46:58;3.50;;;1.05;;
31754;SDS011;18325;52.018;4.726;2022-07-25T07:49:26;1.17;;;0.93;;
31754;SDS011;18325;52.018;4.726;2022-07-25T07:51:53;3.05;;;1.15;;
31754;SDS011;18325;52.018;4.726;2022-07-25T07:54:21;6.88;;;2.08;;
31754;SDS011;18325;52.018;4.726;2022-07-25T07:57:05;6.18;;;1.48;;
31754;SDS011;18325;52.018;4.726;2022-07-25T07:59:32;12.35;;;2.22;;
31754;SDS011;18325;52.018;4.726;2022-07-25T08:01:58;7.53;;;1.60;;
31754;SDS011;18325;52.018;4.726;2022-07-25T08:04:25;3.65;;;1.48;;
31754;SDS011;18325;52.018;4.726;2022-07-25T08:06:52;6.05;;;1.25;;
31754;SDS011;18325;52.018;4.726;2022-07-25T08:09:20;2.67;;;1.15;;
31754;SDS011;18325;52.018;4.726;2022-07-25T08:11:49;3.60;;;1.50;;
31754;SDS011;18325;52.018;4.726;2022-07-25T08:14:16;3.30;;;1.38;;
31754;SDS011;18325;52.018;4.726;2022-07-25T08:16:43;6.38;;;1.85;;
31754;SDS011;18325;52.018;4.726;2022-07-25T08:19:09;4.68;;;1.55;;
31754;SDS011;18325;52.018;4.726;2022-07-25T08:21:36;3.03;;;1.30;;
31754;SDS011;18325;52.018;4.726;2022-07-25T08:24:02;5.40;;;1.30;;
31754;SDS011;18325;52.018;4.726;2022-07-25T08:26:31;5.82;;;1.70;;
31754;SDS011;18325;52.018;4.726;2022-07-25T08:28:57;4.00;;;1.48;;
31754;SDS011;18325;52.018;4.726;2022-07-25T08:31:25;2.92;;;1.40;;
31754;SDS011;18325;52.018;4.726;2022-07-25T08:33:59;4.43;;;1.45;;
31754;SDS011;18325;52.018;4.726;2022-07-25T08:36:26;5.05;;;1.10;;
31754;SDS011;18325;52.018;4.726;2022-07-25T08:39:00;3.78;;;1.23;;
31754;SDS011;18325;52.018;4.726;2022-07-25T08:41:26;3.80;;;1.60;;
31754;SDS011;18325;52.018;4.726;2022-07-25T08:43:55;3.90;;;1.08;;
31754;SDS011;18325;52.018;4.726;2022-07-25T08:46:22;4.50;;;1.73;;
31754;SDS011;18325;52.018;4.726;2022-07-25T08:48:59;4.03;;;1.80;;
31754;SDS011;18325;52.018;4.726;2022-07-25T08:51:25;1.80;;;1.23;;
31754;SDS011;18325;52.018;4.726;2022-07-25T08:53:52;3.90;;;1.58;;
31754;SDS011;18325;52.018;4.726;2022-07-25T08:56:19;3.42;;;1.50;;
31754;SDS011;18325;52.018;4.726;2022-07-25T08:58:46;7.35;;;1.60;;
31754;SDS011;18325;52.018;4.726;2022-07-25T09:01:14;4.60;;;1.40;;
31754;SDS011;18325;52.018;4.726;2022-07-25T09:03:41;2.10;;;1.23;;
31754;SDS011;18325;52.018;4.726;2022-07-25T09:06:17;1.08;;;0.80;;
31754;SDS011;18325;52.018;4.726;2022-07-25T09:08:51;4.13;;;1.02;;
31754;SDS011;18325;52.018;4.726;2022-07-25T09:11:25;5.15;;;1.20;;
31754;SDS011;18325;52.018;4.726;2022-07-25T09:13:56;4.35;;;1.08;;
31754;SDS011;18325;52.018;4.726;2022-07-25T09:16:28;3.40;;;1.25;;
31754;SDS011;18325;52.018;4.726;2022-07-25T09:19:05;3.40;;;0.93;;
31754;SDS011;18325;52.018;4.726;2022-07-25T09:21:36;3.88;;;1.20;;
31754;SDS011;18325;52.018;4.726;2022-07-25T09:24:08;3.72;;;1.30;;
31754;SDS011;18325;52.018;4.726;2022-07-25T09:26:43;2.30;;;1.30;;
31754;SDS011;18325;52.018;4.726;2022-07-25T09:29:15;10.23;;;1.65;;
31754;SDS011;18325;52.018;4.726;2022-07-25T09:31:48;2.20;;;1.00;;
31754;SDS011;18325;52.018;4.726;2022-07-25T09:34:32;4.13;;;1.20;;
31754;SDS011;18325;52.018;4.726;2022-07-25T09:36:59;7.05;;;1.58;;
31754;SDS011;18325;52.018;4.726;2022-07-25T09:39:36;3.05;;;1.58;;
31754;SDS011;18325;52.018;4.726;2022-07-25T09:42:14;1.88;;;1.33;;
31754;SDS011;18325;52.018;4.726;2022-07-25T09:44:42;2.90;;;1.60;;
31754;SDS011;18325;52.018;4.726;2022-07-25T09:47:10;4.55;;;1.40;;
31754;SDS011;18325;52.018;4.726;2022-07-25T09:49:39;3.55;;;1.30;;
31754;SDS011;18325;52.018;4.726;2022-07-25T09:52:06;7.53;;;1.60;;
31754;SDS011;18325;52.018;4.726;2022-07-25T09:54:33;6.70;;;2.13;;
31754;SDS011;18325;52.018;4.726;2022-07-25T09:56:59;7.43;;;2.03;;
31754;SDS011;18325;52.018;4.726;2022-07-25T09:59:26;16.13;;;1.65;;
31754;SDS011;18325;52.018;4.726;2022-07-25T10:01:54;4.68;;;1.60;;
31754;SDS011;18325;52.018;4.726;2022-07-25T10:04:29;3.78;;;1.45;;
31754;SDS011;18325;52.018;4.726;2022-07-25T10:07:08;2.78;;;1.10;;
31754;SDS011;18325;52.018;4.726;2022-07-25T10:09:43;4.25;;;1.35;;
31754;SDS011;18325;52.018;4.726;2022-07-25T10:12:10;6.70;;;1.70;;
31754;SDS011;18325;52.018;4.726;2022-07-25T10:14:39;4.13;;;1.40;;
31754;SDS011;18325;52.018;4.726;2022-07-25T10:17:05;3.38;;;1.60;;
31754;SDS011;18325;52.018;4.726;2022-07-25T10:19:40;2.53;;;1.35;;
31754;SDS011;18325;52.018;4.726;2022-07-25T10:22:08;2.17;;;1.30;;
31754;SDS011;18325;52.018;4.726;2022-07-25T10:24:34;4.70;;;2.10;;
31754;SDS011;18325;52.018;4.726;2022-07-25T10:27:12;7.43;;;2.20;;
31754;SDS011;18325;52.018;4.726;2022-07-25T10:29:40;6.70;;;2.00;;
31754;SDS011;18325;52.018;4.726;2022-07-25T10:32:08;7.60;;;2.97;;
31754;SDS011;18325;52.018;4.726;2022-07-25T10:34:36;4.05;;;1.77;;
31754;SDS011;18325;52.018;4.726;2022-07-25T10:37:10;4.45;;;2.08;;
31754;SDS011;18325;52.018;4.726;2022-07-25T10:39:38;7.22;;;1.65;;
31754;SDS011;18325;52.018;4.726;2022-07-25T10:42:06;7.60;;;2.42;;
31754;SDS011;18325;52.018;4.726;2022-07-25T10:44:39;3.58;;;1.52;;
31754;SDS011;18325;52.018;4.726;2022-07-25T10:47:07;7.57;;;2.28;;
31754;SDS011;18325;52.018;4.726;2022-07-25T10:49:36;7.15;;;1.83;;
31754;SDS011;18325;52.018;4.726;2022-07-25T10:52:04;9.15;;;2.25;;
31754;SDS011;18325;52.018;4.726;2022-07-25T10:54:33;5.70;;;2.50;;
31754;SDS011;18325;52.018;4.726;2022-07-25T10:57:01;6.45;;;2.05;;
31754;SDS011;18325;52.018;4.726;2022-07-25T10:59:30;5.85;;;1.75;;
31754;SDS011;18325;52.018;4.726;2022-07-25T11:01:59;7.07;;;2.38;;
31754;SDS011;18325;52.018;4.726;2022-07-25T11:04:26;7.20;;;2.10;;
31754;SDS011;18325;52.018;4.726;2022-07-25T11:06:53;5.72;;;1.90;;
31754;SDS011;18325;52.018;4.726;2022-07-25T11:09:20;7.38;;;2.08;;
31754;SDS011;18325;52.018;4.726;2022-07-25T11:11:51;6.55;;;2.40;;
31754;SDS011;18325;52.018;4.726;2022-07-25T11:14:19;7.40;;;2.30;;
31754;SDS011;18325;52.018;4.726;2022-07-25T11:16:55;5.32;;;2.25;;
31754;SDS011;18325;52.018;4.726;2022-07-25T11:19:23;7.40;;;2.17;;
31754;SDS011;18325;52.018;4.726;2022-07-25T11:21:51;8.30;;;2.10;;
31754;SDS011;18325;52.018;4.726;2022-07-25T11:24:19;4.35;;;2.00;;
31754;SDS011;18325;52.018;4.726;2022-07-25T11:26:47;2.92;;;1.85;;
31754;SDS011;18325;52.018;4.726;2022-07-25T11:29:19;4.85;;;1.55;;
31754;SDS011;18325;52.018;4.726;2022-07-25T11:31:51;5.53;;;1.80;;
31754;SDS011;18325;52.018;4.726;2022-07-25T11:34:19;4.72;;;1.70;;
31754;SDS011;18325;52.018;4.726;2022-07-25T11:36:47;7.18;;;1.98;;
31754;SDS011;18325;52.018;4.726;2022-07-25T11:39:15;5.68;;;1.52;;
31754;SDS011;18325;52.018;4.726;2022-07-25T11:41:42;8.40;;;1.95;;
31754;SDS011;18325;52.018;4.726;2022-07-25T11:44:09;10.30;;;1.95;;
31754;SDS011;18325;52.018;4.726;2022-07-25T11:46:41;7.72;;;2.20;;
31754;SDS011;18325;52.018;4.726;2022-07-25T11:49:09;10.73;;;2.00;;
31754;SDS011;18325;52.018;4.726;2022-07-25T11:51:35;8.50;;;2.00;;
31754;SDS011;18325;52.018;4.726;2022-07-25T11:54:06;9.55;;;2.03;;
31754;SDS011;18325;52.018;4.726;2022-07-25T11:56:35;8.18;;;1.92;;
31754;SDS011;18325;52.018;4.726;2022-07-25T11:59:05;5.65;;;1.95;;
31754;SDS011;18325;52.018;4.726;2022-07-25T12:01:32;5.72;;;1.52;;
31754;SDS011;18325;52.018;4.726;2022-07-25T12:06:43;1.77;;;1.23;;
31754;SDS011;18325;52.018;4.726;2022-07-25T12:09:11;4.05;;;1.30;;
31754;SDS011;18325;52.018;4.726;2022-07-25T12:11:40;5.93;;;1.65;;
31754;SDS011;18325;52.018;4.726;2022-07-25T12:14:06;6.38;;;1.42;;
31754;SDS011;18325;52.018;4.726;2022-07-25T12:16:33;3.42;;;1.30;;
31754;SDS011;18325;52.018;4.726;2022-07-25T12:19:03;2.75;;;1.35;;
31754;SDS011;18325;52.018;4.726;2022-07-25T12:21:43;5.07;;;1.23;;
31754;SDS011;18325;52.018;4.726;2022-07-25T12:24:09;5.15;;;1.20;;
31754;SDS011;18325;52.018;4.726;2022-07-25T12:26:36;7.07;;;1.60;;
31754;SDS011;18325;52.018;4.726;2022-07-25T12:29:02;7.00;;;1.42;;
31754;SDS011;18325;52.018;4.726;2022-07-25T12:31:29;2.95;;;1.52;;
31754;SDS011;18325;52.018;4.726;2022-07-25T12:33:55;8.82;;;2.10;;
31754;SDS011;18325;52.018;4.726;2022-07-25T12:36:23;4.30;;;1.90;;
31754;SDS011;18325;52.018;4.726;2022-07-25T12:38:51;7.30;;;2.60;;
31754;SDS011;18325;52.018;4.726;2022-07-25T12:41:18;3.72;;;1.83;;
31754;SDS011;18325;52.018;4.726;2022-07-25T12:43:46;6.32;;;1.85;;
31754;SDS011;18325;52.018;4.726;2022-07-25T12:46:13;7.20;;;1.67;;
31754;SDS011;18325;52.018;4.726;2022-07-25T12:48:39;3.70;;;1.63;;
31754;SDS011;18325;52.018;4.726;2022-07-25T12:51:06;5.43;;;1.98;;
31754;SDS011;18325;52.018;4.726;2022-07-25T12:53:33;5.18;;;2.13;;
31754;SDS011;18325;52.018;4.726;2022-07-25T12:56:01;6.55;;;2.17;;
31754;SDS011;18325;52.018;4.726;2022-07-25T12:58:28;5.25;;;1.27;;
31754;SDS011;18325;52.018;4.726;2022-07-25T13:00:54;5.03;;;1.45;;
31754;SDS011;18325;52.018;4.726;2022-07-25T13:03:21;5.95;;;1.63;;
31754;SDS011;18325;52.018;4.726;2022-07-25T13:05:48;6.97;;;1.35;;
31754;SDS011;18325;52.018;4.726;2022-07-25T13:08:23;4.40;;;1.58;;
31754;SDS011;18325;52.018;4.726;2022-07-25T13:10:52;3.33;;;1.08;;
31754;SDS011;18325;52.018;4.726;2022-07-25T13:13:20;5.82;;;1.50;;
31754;SDS011;18325;52.018;4.726;2022-07-25T13:15:46;7.00;;;1.48;;
31754;SDS011;18325;52.018;4.726;2022-07-25T13:18:13;4.97;;;1.33;;
31754;SDS011;18325;52.018;4.726;2022-07-25T13:20:39;5.30;;;1.70;;
31754;SDS011;18325;52.018;4.726;2022-07-25T13:23:06;4.28;;;1.15;;
31754;SDS011;18325;52.018;4.726;2022-07-25T13:25:33;3.85;;;1.30;;
31754;SDS011;18325;52.018;4.726;2022-07-25T13:28:01;3.95;;;1.20;;
31754;SDS011;18325;52.018;4.726;2022-07-25T13:30:29;4.80;;;1.23;;
31754;SDS011;18325;52.018;4.726;2022-07-25T13:32:56;5.32;;;1.17;;
31754;SDS011;18325;52.018;4.726;2022-07-25T13:35:22;3.40;;;1.40;;
31754;SDS011;18325;52.018;4.726;2022-07-25T13:37:49;5.32;;;1.45;;
31754;SDS011;18325;52.018;4.726;2022-07-25T13:40:16;4.03;;;1.23;;
31754;SDS011;18325;52.018;4.726;2022-07-25T13:42:43;8.35;;;1.33;;
31754;SDS011;18325;52.018;4.726;2022-07-25T13:45:09;5.03;;;1.30;;
31754;SDS011;18325;52.018;4.726;2022-07-25T13:47:38;5.80;;;1.10;;
31754;SDS011;18325;52.018;4.726;2022-07-25T13:50:04;4.25;;;1.08;;
31754;SDS011;18325;52.018;4.726;2022-07-25T13:52:32;4.03;;;0.80;;
31754;SDS011;18325;52.018;4.726;2022-07-25T13:55:20;3.85;;;1.23;;
31754;SDS011;18325;52.018;4.726;2022-07-25T13:57:46;5.35;;;1.48;;
31754;SDS011;18325;52.018;4.726;2022-07-25T14:00:13;2.83;;;1.10;;
31754;SDS011;18325;52.018;4.726;2022-07-25T14:02:41;3.78;;;0.88;;
31754;SDS011;18325;52.018;4.726;2022-07-25T14:05:08;4.43;;;1.27;;
31754;SDS011;18325;52.018;4.726;2022-07-25T14:07:35;2.80;;;0.85;;
31754;SDS011;18325;52.018;4.726;2022-07-25T14:10:02;4.50;;;1.15;;
31754;SDS011;18325;52.018;4.726;2022-07-25T14:12:29;3.00;;;0.70;;
31754;SDS011;18325;52.018;4.726;2022-07-25T14:14:55;3.53;;;0.90;;
31754;SDS011;18325;52.018;4.726;2022-07-25T14:17:22;4.75;;;0.98;;
31754;SDS011;18325;52.018;4.726;2022-07-25T14:19:50;2.30;;;0.75;;
31754;SDS011;18325;52.018;4.726;2022-07-25T14:22:17;6.07;;;0.80;;
31754;SDS011;18325;52.018;4.726;2022-07-25T14:24:43;5.30;;;1.02;;
31754;SDS011;18325;52.018;4.726;2022-07-25T14:27:10;1.58;;;0.82;;
31754;SDS011;18325;52.018;4.726;2022-07-25T14:29:37;5.20;;;1.02;;
31754;SDS011;18325;52.018;4.726;2022-07-25T14:32:04;2.38;;;0.82;;
31754;SDS011;18325;52.018;4.726;2022-07-25T14:34:31;1.67;;;0.70;;
31754;SDS011;18325;52.018;4.726;2022-07-25T14:36:59;4.72;;;0.80;;
31754;SDS011;18325;52.018;4.726;2022-07-25T14:39:26;3.97;;;0.68;;
31754;SDS011;18325;52.018;4.726;2022-07-25T14:41:54;4.60;;;1.13;;
31754;SDS011;18325;52.018;4.726;2022-07-25T14:44:21;4.07;;;0.85;;
31754;SDS011;18325;52.018;4.726;2022-07-25T14:46:48;3.75;;;1.00;;
31754;SDS011;18325;52.018;4.726;2022-07-25T14:49:22;2.55;;;1.17;;
31754;SDS011;18325;52.018;4.726;2022-07-25T14:51:53;3.28;;;1.10;;